createdAt,value
2023-01-29T00:00:05.382Z,90
2023-01-29T00:01:00.931Z,90
2023-01-29T00:02:01.799Z,90
2023-01-29T00:03:00.994Z,90
2023-01-29T00:04:01.011Z,90
2023-01-29T00:05:20.728Z,90
2023-01-29T00:06:01.619Z,90
2023-01-29T00:07:00.964Z,90
2023-01-29T00:08:01.023Z,90
2023-01-29T00:09:00.989Z,90
2023-01-29T00:10:06.009Z,90
2023-01-29T00:11:00.989Z,90
2023-01-29T00:12:01.087Z,90
2023-01-29T00:13:00.996Z,90
2023-01-29T00:14:01.646Z,90
2023-01-29T00:15:05.376Z,90
2023-01-29T00:16:01.094Z,90
2023-01-29T00:17:01.057Z,90
2023-01-29T00:18:01.635Z,90
2023-01-29T00:19:01.036Z,90
2023-01-29T00:20:06.012Z,90
2023-01-29T00:21:01.091Z,91
2023-01-29T00:22:01.603Z,91
2023-01-29T00:23:01.061Z,91
2023-01-29T00:24:01.756Z,91
2023-01-29T00:25:04.420Z,91
2023-01-29T00:26:01.682Z,91
2023-01-29T00:27:01.123Z,91
2023-01-29T00:28:01.630Z,91
2023-01-29T00:29:01.102Z,91
2023-01-29T00:30:06.067Z,91
2023-01-29T00:31:01.192Z,91
2023-01-29T00:32:01.779Z,91
2023-01-29T00:33:01.146Z,91
2023-01-29T00:34:01.720Z,91
2023-01-29T00:35:04.775Z,91
2023-01-29T00:36:01.763Z,91
2023-01-29T00:37:01.644Z,91
2023-01-29T00:38:01.686Z,91
2023-01-29T00:39:01.643Z,91
2023-01-29T00:40:06.197Z,91
2023-01-29T00:41:00.185Z,91
2023-01-29T00:42:00.339Z,91
2023-01-29T00:43:00.204Z,91
2023-01-29T00:44:00.272Z,91
2023-01-29T00:45:03.603Z,91
2023-01-29T00:46:00.288Z,91
2023-01-29T00:47:00.218Z,91
2023-01-29T00:48:01.669Z,91
2023-01-29T00:49:00.970Z,91
2023-01-29T00:50:05.367Z,91
2023-01-29T00:51:00.252Z,91
2023-01-29T00:52:01.641Z,91
2023-01-29T00:53:00.268Z,91
2023-01-29T00:54:00.351Z,91
2023-01-29T00:55:03.627Z,91
2023-01-29T00:56:01.643Z,91
2023-01-29T00:57:00.291Z,91
2023-01-29T00:58:00.358Z,91
2023-01-29T00:59:00.318Z,91
2023-01-29T01:00:04.947Z,91
2023-01-29T01:01:00.423Z,91
2023-01-29T01:02:00.511Z,91
2023-01-29T01:03:00.325Z,91
2023-01-29T01:04:01.711Z,91
2023-01-29T01:05:04.637Z,91
2023-01-29T01:06:00.430Z,91
2023-01-29T01:07:00.337Z,91
2023-01-29T01:08:00.453Z,91
2023-01-29T01:09:00.367Z,91
2023-01-29T01:10:04.966Z,91
2023-01-29T01:11:00.367Z,91
2023-01-29T01:12:00.464Z,91
2023-01-29T01:13:00.363Z,91
2023-01-29T01:14:00.460Z,91
2023-01-29T01:15:03.798Z,91
2023-01-29T01:16:00.534Z,91
2023-01-29T01:17:00.407Z,91
2023-01-29T01:18:01.632Z,91
2023-01-29T01:19:00.419Z,91
2023-01-29T01:20:05.399Z,91
2023-01-29T01:21:00.436Z,91
2023-01-29T01:22:01.616Z,91
2023-01-29T01:23:00.425Z,91
2023-01-29T01:24:00.740Z,91
2023-01-29T01:25:03.857Z,91
2023-01-29T01:26:01.609Z,91
2023-01-29T01:27:00.472Z,91
2023-01-29T01:28:00.563Z,91
2023-01-29T01:29:00.491Z,91
2023-01-29T01:30:05.078Z,91
2023-01-29T01:31:00.528Z,91
2023-01-29T01:32:00.675Z,91
2023-01-29T01:33:00.503Z,91
2023-01-29T01:34:01.728Z,91
2023-01-29T01:35:04.869Z,91
2023-01-29T01:36:00.640Z,91
2023-01-29T01:37:00.542Z,91
2023-01-29T01:38:00.611Z,91
2023-01-29T01:39:00.542Z,91
2023-01-29T01:40:05.088Z,91
2023-01-29T01:41:00.561Z,91
2023-01-29T01:42:00.639Z,91
2023-01-29T01:43:00.579Z,91
2023-01-29T01:44:00.655Z,91
2023-01-29T01:45:05.994Z,91
2023-01-29T01:46:00.669Z,91
2023-01-29T01:47:00.576Z,91
2023-01-29T01:48:01.653Z,91
2023-01-29T01:49:00.598Z,91
2023-01-29T01:50:04.141Z,91
2023-01-29T01:51:00.733Z,91
2023-01-29T01:52:01.597Z,91
2023-01-29T01:53:00.638Z,91
2023-01-29T01:54:00.956Z,91
2023-01-29T01:55:04.894Z,91
2023-01-29T01:56:01.635Z,91
2023-01-29T01:57:00.704Z,91
2023-01-29T01:58:00.748Z,91
2023-01-29T01:59:00.676Z,91
2023-01-29T02:00:05.232Z,91
2023-01-29T02:01:00.836Z,91
2023-01-29T02:02:00.834Z,91
2023-01-29T02:03:05.252Z,91
2023-01-29T02:04:01.702Z,91
2023-01-29T02:05:04.939Z,91
2023-01-29T02:06:00.819Z,91
2023-01-29T02:07:00.723Z,91
2023-01-29T02:08:00.818Z,91
2023-01-29T02:09:00.749Z,91
2023-01-29T02:10:05.252Z,91
2023-01-29T02:11:00.760Z,91
2023-01-29T02:12:00.905Z,91
2023-01-29T02:13:00.763Z,91
2023-01-29T02:14:00.869Z,91
2023-01-29T02:15:05.096Z,91
2023-01-29T02:16:00.897Z,91
2023-01-29T02:17:00.802Z,91
2023-01-29T02:18:01.656Z,91
2023-01-29T02:19:00.816Z,91
2023-01-29T02:20:05.347Z,91
2023-01-29T02:21:00.849Z,91
2023-01-29T02:22:01.626Z,91
2023-01-29T02:23:02.640Z,91
2023-01-29T02:24:01.037Z,91
2023-01-29T02:25:04.184Z,91
2023-01-29T02:26:01.605Z,91
2023-01-29T02:27:00.881Z,91
2023-01-29T02:28:01.002Z,91
2023-01-29T02:29:00.871Z,91
2023-01-29T02:30:05.385Z,91
2023-01-29T02:31:00.956Z,91
2023-01-29T02:32:01.051Z,91
2023-01-29T02:33:00.937Z,91
2023-01-29T02:34:01.711Z,91
2023-01-29T02:35:04.309Z,91
2023-01-29T02:36:01.060Z,91
2023-01-29T02:37:00.946Z,91
2023-01-29T02:38:01.039Z,91
2023-01-29T02:39:00.976Z,91
2023-01-29T02:40:06.311Z,91
2023-01-29T02:41:00.998Z,91
2023-01-29T02:42:01.315Z,91
2023-01-29T02:43:01.059Z,91
2023-01-29T02:44:01.119Z,91
2023-01-29T02:45:04.368Z,91
2023-01-29T02:46:01.155Z,91
2023-01-29T02:47:01.050Z,91
2023-01-29T02:48:01.645Z,91
2023-01-29T02:49:01.050Z,91
2023-01-29T02:50:05.995Z,91
2023-01-29T02:51:01.085Z,91
2023-01-29T02:52:01.626Z,91
2023-01-29T02:53:01.086Z,91
2023-01-29T02:54:01.417Z,91
2023-01-29T02:55:04.536Z,91
2023-01-29T02:56:01.724Z,91
2023-01-29T02:57:01.120Z,91
2023-01-29T02:58:01.178Z,91
2023-01-29T02:59:01.115Z,91
2023-01-29T03:00:06.057Z,91
2023-01-29T03:01:01.175Z,91
2023-01-29T03:02:01.729Z,91
2023-01-29T03:03:01.200Z,91
2023-01-29T03:04:01.753Z,91
2023-01-29T03:05:05.928Z,91
2023-01-29T03:06:01.607Z,91
2023-01-29T03:07:01.196Z,91
2023-01-29T03:08:01.706Z,91
2023-01-29T03:09:01.708Z,91
2023-01-29T03:10:06.270Z,91
2023-01-29T03:11:01.681Z,91
2023-01-29T03:12:01.788Z,91
2023-01-29T03:13:01.708Z,91
2023-01-29T03:14:00.322Z,91
2023-01-29T03:15:03.567Z,91
2023-01-29T03:16:00.346Z,91
2023-01-29T03:17:00.271Z,91
2023-01-29T03:18:01.647Z,91
2023-01-29T03:19:00.266Z,91
2023-01-29T03:20:04.709Z,91
2023-01-29T03:21:00.311Z,91
2023-01-29T03:22:00.502Z,91
2023-01-29T03:23:00.296Z,91
2023-01-29T03:24:00.416Z,91
2023-01-29T03:25:03.594Z,91
2023-01-29T03:26:00.423Z,91
2023-01-29T03:27:00.329Z,91
2023-01-29T03:28:00.409Z,91
2023-01-29T03:29:00.319Z,91
2023-01-29T03:30:04.842Z,91
2023-01-29T03:31:00.398Z,91
2023-01-29T03:32:00.502Z,91
2023-01-29T03:33:00.356Z,91
2023-01-29T03:34:00.437Z,92
2023-01-29T03:35:05.302Z,92
2023-01-29T03:36:00.461Z,92
2023-01-29T03:37:00.371Z,92
2023-01-29T03:38:00.467Z,92
2023-01-29T03:39:00.410Z,92
2023-01-29T03:40:04.906Z,92
2023-01-29T03:41:00.392Z,92
2023-01-29T03:42:00.554Z,92
2023-01-29T03:43:00.409Z,92
2023-01-29T03:44:00.507Z,92
2023-01-29T03:45:04.707Z,92
2023-01-29T03:46:00.581Z,92
2023-01-29T03:47:00.462Z,92
2023-01-29T03:48:00.544Z,92
2023-01-29T03:49:00.453Z,92
2023-01-29T03:50:04.939Z,92
2023-01-29T03:51:00.477Z,92
2023-01-29T03:52:00.570Z,92
2023-01-29T03:53:00.485Z,92
2023-01-29T03:54:00.577Z,92
2023-01-29T03:55:04.751Z,91
2023-01-29T03:56:00.548Z,91
2023-01-29T03:57:00.516Z,91
2023-01-29T03:58:00.574Z,91
2023-01-29T03:59:00.537Z,91
2023-01-29T04:00:04.149Z,91
2023-01-29T04:01:00.537Z,91
2023-01-29T04:02:00.632Z,91
2023-01-29T04:03:00.535Z,91
2023-01-29T04:04:00.673Z,91
2023-01-29T04:05:04.799Z,91
2023-01-29T04:06:00.626Z,91
2023-01-29T04:07:00.559Z,91
2023-01-29T04:08:00.627Z,91
2023-01-29T04:09:00.561Z,91
2023-01-29T04:10:05.184Z,91
2023-01-29T04:11:00.596Z,91
2023-01-29T04:12:00.671Z,91
2023-01-29T04:13:00.572Z,91
2023-01-29T04:14:00.660Z,91
2023-01-29T04:15:05.036Z,91
2023-01-29T04:16:00.724Z,91
2023-01-29T04:17:00.607Z,91
2023-01-29T04:18:00.700Z,91
2023-01-29T04:19:00.607Z,91
2023-01-29T04:20:04.237Z,91
2023-01-29T04:21:00.636Z,91
2023-01-29T04:22:00.723Z,91
2023-01-29T04:23:00.628Z,91
2023-01-29T04:24:00.750Z,91
2023-01-29T04:25:04.948Z,91
2023-01-29T04:26:00.717Z,91
2023-01-29T04:27:00.677Z,91
2023-01-29T04:28:00.759Z,91
2023-01-29T04:29:00.666Z,91
2023-01-29T04:30:06.359Z,91
2023-01-29T04:31:00.823Z,91
2023-01-29T04:32:00.773Z,91
2023-01-29T04:33:00.709Z,91
2023-01-29T04:34:00.842Z,91
2023-01-29T04:35:04.943Z,91
2023-01-29T04:36:00.801Z,91
2023-01-29T04:37:00.731Z,91
2023-01-29T04:38:00.805Z,91
2023-01-29T04:39:00.745Z,91
2023-01-29T04:40:05.344Z,91
2023-01-29T04:41:00.784Z,91
2023-01-29T04:42:00.855Z,91
2023-01-29T04:43:00.788Z,91
2023-01-29T04:44:00.835Z,91
2023-01-29T04:45:04.213Z,91
2023-01-29T04:46:00.868Z,91
2023-01-29T04:47:00.811Z,91
2023-01-29T04:48:00.886Z,91
2023-01-29T04:49:00.786Z,91
2023-01-29T04:50:05.354Z,91
2023-01-29T04:51:00.813Z,91
2023-01-29T04:52:00.924Z,91
2023-01-29T04:53:00.828Z,91
2023-01-29T04:54:00.920Z,91
2023-01-29T04:55:05.205Z,91
2023-01-29T04:56:00.892Z,91
2023-01-29T04:57:00.861Z,91
2023-01-29T04:58:00.968Z,91
2023-01-29T04:59:00.837Z,92
2023-01-29T05:00:05.422Z,92
2023-01-29T05:01:00.876Z,92
2023-01-29T05:02:00.996Z,92
2023-01-29T05:03:01.013Z,92
2023-01-29T05:04:00.989Z,92
2023-01-29T05:05:04.302Z,92
2023-01-29T05:06:01.014Z,92
2023-01-29T05:07:00.903Z,92
2023-01-29T05:08:00.992Z,92
2023-01-29T05:09:00.947Z,92
2023-01-29T05:10:05.704Z,92
2023-01-29T05:11:00.946Z,92
2023-01-29T05:12:01.014Z,92
2023-01-29T05:13:00.944Z,92
2023-01-29T05:14:01.028Z,92
2023-01-29T05:15:05.341Z,92
2023-01-29T05:16:01.177Z,92
2023-01-29T05:17:00.970Z,92
2023-01-29T05:18:01.061Z,92
2023-01-29T05:19:00.982Z,92
2023-01-29T05:20:04.655Z,92
2023-01-29T05:21:01.014Z,92
2023-01-29T05:22:01.154Z,91
2023-01-29T05:23:01.021Z,91
2023-01-29T05:24:01.124Z,91
2023-01-29T05:25:06.009Z,91
2023-01-29T05:26:01.114Z,91
2023-01-29T05:27:01.045Z,91
2023-01-29T05:28:01.126Z,92
2023-01-29T05:29:01.043Z,92
2023-01-29T05:30:06.228Z,92
2023-01-29T05:31:01.207Z,92
2023-01-29T05:32:01.141Z,92
2023-01-29T05:33:01.081Z,91
2023-01-29T05:34:01.341Z,91
2023-01-29T05:35:05.444Z,91
2023-01-29T05:36:01.176Z,91
2023-01-29T05:37:01.100Z,91
2023-01-29T05:38:01.187Z,91
2023-01-29T05:39:01.126Z,91
2023-01-29T05:40:06.066Z,91
2023-01-29T05:41:01.110Z,91
2023-01-29T05:42:01.641Z,91
2023-01-29T05:43:01.139Z,91
2023-01-29T05:44:01.633Z,91
2023-01-29T05:45:05.930Z,91
2023-01-29T05:46:01.640Z,91
2023-01-29T05:47:01.157Z,91
2023-01-29T05:48:01.656Z,91
2023-01-29T05:49:01.648Z,91
2023-01-29T05:50:05.239Z,91
2023-01-29T05:51:01.646Z,91
2023-01-29T05:52:00.276Z,91
2023-01-29T05:53:00.311Z,91
2023-01-29T05:54:00.318Z,91
2023-01-29T05:55:04.534Z,91
2023-01-29T05:56:00.292Z,91
2023-01-29T05:57:00.235Z,91
2023-01-29T05:58:00.322Z,91
2023-01-29T05:59:00.225Z,91
2023-01-29T06:00:04.908Z,91
2023-01-29T06:01:00.271Z,91
2023-01-29T06:02:00.413Z,91
2023-01-29T06:03:00.319Z,91
2023-01-29T06:04:00.385Z,91
2023-01-29T06:05:04.534Z,91
2023-01-29T06:06:00.401Z,91
2023-01-29T06:07:00.301Z,91
2023-01-29T06:08:00.400Z,91
2023-01-29T06:09:00.328Z,91
2023-01-29T06:10:03.858Z,91
2023-01-29T06:11:00.317Z,91
2023-01-29T06:12:00.407Z,91
2023-01-29T06:13:00.337Z,91
2023-01-29T06:14:00.439Z,91
2023-01-29T06:15:04.785Z,91
2023-01-29T06:16:00.510Z,91
2023-01-29T06:17:00.356Z,91
2023-01-29T06:18:00.447Z,91
2023-01-29T06:19:00.365Z,91
2023-01-29T06:20:06.043Z,91
2023-01-29T06:21:00.416Z,91
2023-01-29T06:22:00.465Z,91
2023-01-29T06:23:00.420Z,91
2023-01-29T06:24:00.555Z,91
2023-01-29T06:25:03.778Z,91
2023-01-29T06:26:00.544Z,91
2023-01-29T06:27:00.443Z,91
2023-01-29T06:28:00.493Z,91
2023-01-29T06:29:00.437Z,91
2023-01-29T06:30:05.065Z,91
2023-01-29T06:31:11.370Z,91
2023-01-29T06:32:00.830Z,91
2023-01-29T06:33:00.501Z,91
2023-01-29T06:34:00.577Z,91
2023-01-29T06:35:03.891Z,91
2023-01-29T06:36:00.594Z,92
2023-01-29T06:37:00.521Z,92
2023-01-29T06:38:00.630Z,92
2023-01-29T06:39:00.536Z,91
2023-01-29T06:40:05.133Z,91
2023-01-29T06:41:00.540Z,92
2023-01-29T06:42:00.643Z,92
2023-01-29T06:43:00.530Z,92
2023-01-29T06:44:00.649Z,92
2023-01-29T06:45:04.855Z,92
2023-01-29T06:46:00.740Z,92
2023-01-29T06:47:00.549Z,92
2023-01-29T06:48:01.630Z,92
2023-01-29T06:49:00.590Z,92
2023-01-29T06:50:05.160Z,92
2023-01-29T06:51:00.606Z,91
2023-01-29T06:52:00.686Z,91
2023-01-29T06:53:00.607Z,91
2023-01-29T06:54:00.702Z,91
2023-01-29T06:55:04.042Z,91
2023-01-29T06:56:00.760Z,91
2023-01-29T06:57:00.638Z,91
2023-01-29T06:58:00.708Z,91
2023-01-29T06:59:00.635Z,91
2023-01-29T07:00:06.014Z,91
2023-01-29T07:01:00.661Z,91
2023-01-29T07:02:00.820Z,91
2023-01-29T07:03:00.682Z,91
2023-01-29T07:04:00.757Z,91
2023-01-29T07:05:04.995Z,91
2023-01-29T07:06:00.763Z,91
2023-01-29T07:07:00.697Z,91
2023-01-29T07:08:00.805Z,91
2023-01-29T07:09:00.712Z,91
2023-01-29T07:10:05.219Z,91
2023-01-29T07:11:00.715Z,91
2023-01-29T07:12:00.810Z,91
2023-01-29T07:13:00.741Z,91
2023-01-29T07:14:00.851Z,91
2023-01-29T07:15:06.020Z,91
2023-01-29T07:16:00.931Z,91
2023-01-29T07:17:00.765Z,91
2023-01-29T07:18:00.877Z,91
2023-01-29T07:19:00.780Z,91
2023-01-29T07:20:05.335Z,91
2023-01-29T07:21:00.811Z,91
2023-01-29T07:22:00.861Z,91
2023-01-29T07:23:00.804Z,91
2023-01-29T07:24:00.924Z,91
2023-01-29T07:25:05.186Z,91
2023-01-29T07:26:00.928Z,91
2023-01-29T07:27:00.865Z,91
2023-01-29T07:28:01.205Z,91
2023-01-29T07:29:00.897Z,91
2023-01-29T07:30:05.387Z,91
2023-01-29T07:31:00.906Z,91
2023-01-29T07:32:01.041Z,91
2023-01-29T07:33:00.894Z,91
2023-01-29T07:34:00.981Z,91
2023-01-29T07:35:05.274Z,91
2023-01-29T07:36:00.994Z,91
2023-01-29T07:37:00.917Z,91
2023-01-29T07:38:01.007Z,91
2023-01-29T07:39:00.942Z,91
2023-01-29T07:40:05.462Z,91
2023-01-29T07:41:02.840Z,91
2023-01-29T07:42:01.009Z,91
2023-01-29T07:43:00.935Z,91
2023-01-29T07:44:01.091Z,91
2023-01-29T07:45:05.314Z,91
2023-01-29T07:46:01.205Z,91
2023-01-29T07:47:00.982Z,91
2023-01-29T07:48:01.055Z,91
2023-01-29T07:49:00.987Z,91
2023-01-29T07:50:06.019Z,91
2023-01-29T07:51:01.042Z,91
2023-01-29T07:52:01.084Z,91
2023-01-29T07:53:01.001Z,91
2023-01-29T07:54:01.119Z,90
2023-01-29T07:55:05.270Z,90
2023-01-29T07:56:01.132Z,90
2023-01-29T07:57:01.047Z,90
2023-01-29T07:58:01.100Z,90
2023-01-29T07:59:01.065Z,90
2023-01-29T08:00:06.259Z,90
2023-01-29T08:01:01.258Z,90
2023-01-29T08:02:01.697Z,90
2023-01-29T08:03:01.120Z,90
2023-01-29T08:04:01.661Z,90
2023-01-29T08:05:05.950Z,90
2023-01-29T08:06:01.581Z,90
2023-01-29T08:07:01.119Z,90
2023-01-29T08:08:06.964Z,90
2023-01-29T08:09:01.143Z,90
2023-01-29T08:10:06.430Z,90
2023-01-29T08:11:01.289Z,90
2023-01-29T08:12:01.711Z,90
2023-01-29T08:13:01.651Z,90
2023-01-29T08:14:01.759Z,90
2023-01-29T08:15:05.897Z,90
2023-01-29T08:16:00.285Z,90
2023-01-29T08:17:00.197Z,90
2023-01-29T08:18:00.322Z,90
2023-01-29T08:19:00.208Z,90
2023-01-29T08:20:04.725Z,90
2023-01-29T08:21:00.238Z,90
2023-01-29T08:22:00.298Z,90
2023-01-29T08:23:00.255Z,90
2023-01-29T08:25:21.094Z,90
2023-01-29T08:26:00.487Z,90
2023-01-29T08:27:00.269Z,90
2023-01-29T08:28:00.331Z,90
2023-01-29T08:29:00.269Z,90
2023-01-29T08:30:04.815Z,90
2023-01-29T08:31:00.478Z,90
2023-01-29T08:32:00.489Z,90
2023-01-29T08:33:00.300Z,90
2023-01-29T08:34:00.383Z,90
2023-01-29T08:35:03.631Z,90
2023-01-29T08:36:00.390Z,90
2023-01-29T08:37:00.303Z,90
2023-01-29T08:38:00.535Z,90
2023-01-29T08:39:00.340Z,90
2023-01-29T08:40:04.836Z,90
2023-01-29T08:41:00.366Z,90
2023-01-29T08:42:00.424Z,90
2023-01-29T08:43:02.132Z,90
2023-01-29T08:44:00.447Z,90
2023-01-29T08:45:04.699Z,90
2023-01-29T08:46:00.510Z,90
2023-01-29T08:47:00.360Z,90
2023-01-29T08:48:00.468Z,90
2023-01-29T08:49:00.382Z,90
2023-01-29T08:50:05.088Z,90
2023-01-29T08:51:00.405Z,90
2023-01-29T08:52:02.989Z,90
2023-01-29T08:53:00.420Z,90
2023-01-29T08:54:00.515Z,90
2023-01-29T08:55:03.870Z,90
2023-01-29T08:56:00.512Z,90
2023-01-29T08:57:00.426Z,90
2023-01-29T08:58:00.506Z,90
2023-01-29T08:59:00.452Z,90
2023-01-29T09:00:05.153Z,90
2023-01-29T09:01:00.483Z,90
2023-01-29T09:02:00.557Z,90
2023-01-29T09:03:00.469Z,90
2023-01-29T09:04:00.541Z,90
2023-01-29T09:05:05.439Z,90
2023-01-29T09:06:00.549Z,90
2023-01-29T09:07:00.488Z,90
2023-01-29T09:08:00.591Z,90
2023-01-29T09:09:00.520Z,90
2023-01-29T09:10:05.035Z,90
2023-01-29T09:11:00.535Z,90
2023-01-29T09:12:00.617Z,90
2023-01-29T09:13:00.549Z,90
2023-01-29T09:14:00.638Z,90
2023-01-29T09:15:04.954Z,90
2023-01-29T09:16:00.640Z,90
2023-01-29T09:17:00.560Z,90
2023-01-29T09:18:00.663Z,90
2023-01-29T09:19:00.601Z,90
2023-01-29T09:20:05.193Z,90
2023-01-29T09:21:00.662Z,90
2023-01-29T09:22:00.667Z,90
2023-01-29T09:23:00.600Z,90
2023-01-29T09:24:00.697Z,90
2023-01-29T09:25:04.853Z,90
2023-01-29T09:26:00.705Z,90
2023-01-29T09:27:00.645Z,90
2023-01-29T09:28:00.694Z,90
2023-01-29T09:29:00.656Z,90
2023-01-29T09:30:05.174Z,90
2023-01-29T09:31:00.812Z,89
2023-01-29T09:32:00.784Z,89
2023-01-29T09:33:00.700Z,89
2023-01-29T09:34:00.748Z,89
2023-01-29T09:35:04.985Z,89
2023-01-29T09:36:00.791Z,89
2023-01-29T09:37:00.722Z,89
2023-01-29T09:38:00.812Z,89
2023-01-29T09:39:00.722Z,89
2023-01-29T09:40:05.198Z,89
2023-01-29T09:41:00.731Z,89
2023-01-29T09:42:00.827Z,89
2023-01-29T09:43:00.758Z,89
2023-01-29T09:44:00.840Z,89
2023-01-29T09:45:05.140Z,89
2023-01-29T09:46:00.877Z,89
2023-01-29T09:47:00.772Z,89
2023-01-29T09:48:00.869Z,89
2023-01-29T09:49:00.785Z,89
2023-01-29T09:50:05.333Z,89
2023-01-29T09:51:00.831Z,89
2023-01-29T09:52:00.878Z,89
2023-01-29T09:53:00.839Z,89
2023-01-29T09:54:00.896Z,89
2023-01-29T09:55:05.122Z,89
2023-01-29T09:56:00.941Z,89
2023-01-29T09:57:00.879Z,89
2023-01-29T09:58:00.938Z,89
2023-01-29T09:59:01.912Z,89
2023-01-29T10:00:06.384Z,89
2023-01-29T10:01:00.915Z,88
2023-01-29T10:02:01.128Z,88
2023-01-29T10:03:00.918Z,88
2023-01-29T10:04:00.967Z,88
2023-01-29T10:05:05.198Z,88
2023-01-29T10:06:01.020Z,88
2023-01-29T10:07:00.936Z,88
2023-01-29T10:08:01.018Z,88
2023-01-29T10:09:00.988Z,88
2023-01-29T10:10:05.547Z,88
2023-01-29T10:11:00.950Z,88
2023-01-29T10:12:01.038Z,88
2023-01-29T10:13:00.945Z,88
2023-01-29T10:14:01.089Z,87
2023-01-29T10:15:09.415Z,87
2023-01-29T10:16:01.034Z,87
2023-01-29T10:17:01.036Z,87
2023-01-29T10:18:01.095Z,87
2023-01-29T10:19:01.002Z,88
2023-01-29T10:20:06.032Z,88
2023-01-29T10:21:01.020Z,88
2023-01-29T10:22:01.106Z,88
2023-01-29T10:23:00.999Z,88
2023-01-29T10:24:01.097Z,87
2023-01-29T10:25:05.368Z,87
2023-01-29T10:26:01.138Z,87
2023-01-29T10:27:01.051Z,87
2023-01-29T10:28:01.112Z,87
2023-01-29T10:29:01.051Z,87
2023-01-29T10:30:06.115Z,87
2023-01-29T10:31:01.208Z,87
2023-01-29T10:32:01.334Z,87
2023-01-29T10:33:01.111Z,87
2023-01-29T10:34:02.918Z,87
2023-01-29T10:35:06.506Z,87
2023-01-29T10:36:01.642Z,87
2023-01-29T10:37:01.091Z,87
2023-01-29T10:38:01.195Z,87
2023-01-29T10:39:01.107Z,87
2023-01-29T10:40:05.889Z,87
2023-01-29T10:41:01.128Z,87
2023-01-29T10:42:01.563Z,87
2023-01-29T10:43:01.130Z,87
2023-01-29T10:44:01.652Z,87
2023-01-29T10:45:05.850Z,87
2023-01-29T10:46:01.587Z,87
2023-01-29T10:47:01.184Z,86
2023-01-29T10:48:01.678Z,86
2023-01-29T10:49:01.640Z,86
2023-01-29T10:50:06.706Z,86
2023-01-29T10:51:01.657Z,86
2023-01-29T10:52:00.251Z,86
2023-01-29T10:53:00.199Z,86
2023-01-29T10:54:00.305Z,86
2023-01-29T10:55:05.195Z,86
2023-01-29T10:56:01.216Z,85
2023-01-29T10:57:00.280Z,85
2023-01-29T10:58:01.742Z,85
2023-01-29T10:59:00.256Z,86
2023-01-29T11:00:04.867Z,86
2023-01-29T11:01:00.277Z,86
2023-01-29T11:02:00.485Z,85
2023-01-29T11:03:00.504Z,85
2023-01-29T11:04:00.350Z,85
2023-01-29T11:05:04.679Z,85
2023-01-29T11:06:00.393Z,84
2023-01-29T11:07:00.321Z,84
2023-01-29T11:08:00.481Z,84
2023-01-29T11:09:00.325Z,84
2023-01-29T11:10:04.864Z,84
2023-01-29T11:11:00.348Z,84
2023-01-29T11:12:00.432Z,84
2023-01-29T11:13:00.380Z,84
2023-01-29T11:14:00.462Z,84
2023-01-29T11:15:03.839Z,84
2023-01-29T11:16:00.439Z,84
2023-01-29T11:17:00.404Z,84
2023-01-29T11:18:00.475Z,84
2023-01-29T11:19:00.397Z,83
2023-01-29T11:20:05.011Z,83
2023-01-29T11:21:00.419Z,83
2023-01-29T11:22:00.462Z,83
2023-01-29T11:23:00.469Z,83
2023-01-29T11:24:00.511Z,83
2023-01-29T11:25:04.828Z,83
2023-01-29T11:26:00.555Z,83
2023-01-29T11:27:00.468Z,83
2023-01-29T11:28:00.568Z,83
2023-01-29T11:29:00.493Z,82
2023-01-29T11:30:05.034Z,82
2023-01-29T11:31:00.550Z,82
2023-01-29T11:32:00.568Z,82
2023-01-29T11:33:00.501Z,82
2023-01-29T11:34:00.567Z,82
2023-01-29T11:35:03.942Z,81
2023-01-29T11:36:00.611Z,81
2023-01-29T11:37:00.503Z,82
2023-01-29T11:38:00.615Z,82
2023-01-29T11:39:00.534Z,82
2023-01-29T11:40:04.994Z,81
2023-01-29T11:41:00.539Z,81
2023-01-29T11:42:00.608Z,81
2023-01-29T11:43:00.547Z,81
2023-01-29T11:44:00.648Z,81
2023-01-29T11:45:03.824Z,81
2023-01-29T11:46:00.627Z,81
2023-01-29T11:47:00.597Z,81
2023-01-29T11:48:00.675Z,81
2023-01-29T11:49:14.176Z,81
2023-01-29T11:50:06.243Z,80
2023-01-29T11:51:00.671Z,80
2023-01-29T11:52:00.664Z,80
2023-01-29T11:53:00.622Z,80
2023-01-29T11:54:00.721Z,80
2023-01-29T11:55:03.999Z,81
2023-01-29T11:56:00.751Z,81
2023-01-29T11:57:00.643Z,81
2023-01-29T11:58:00.726Z,80
2023-01-29T11:59:00.634Z,80
2023-01-29T12:00:05.215Z,80
2023-01-29T12:01:00.675Z,80
2023-01-29T12:02:00.767Z,80
2023-01-29T12:03:00.706Z,80
2023-01-29T12:04:00.800Z,80
2023-01-29T12:05:05.069Z,79
2023-01-29T12:06:00.863Z,79
2023-01-29T12:07:00.702Z,79
2023-01-29T12:08:00.810Z,79
2023-01-29T12:09:00.750Z,79
2023-01-29T12:10:05.237Z,79
2023-01-29T12:11:00.739Z,79
2023-01-29T12:12:00.806Z,79
2023-01-29T12:13:00.735Z,79
2023-01-29T12:14:00.839Z,79
2023-01-29T12:15:05.013Z,79
2023-01-29T12:16:00.880Z,79
2023-01-29T12:17:00.764Z,79
2023-01-29T12:18:00.842Z,79
2023-01-29T12:19:00.772Z,79
2023-01-29T12:20:05.444Z,78
2023-01-29T12:21:00.813Z,78
2023-01-29T12:22:03.024Z,78
2023-01-29T12:23:00.785Z,78
2023-01-29T12:24:00.893Z,78
2023-01-29T12:25:05.113Z,78
2023-01-29T12:26:00.898Z,78
2023-01-29T12:27:00.838Z,78
2023-01-29T12:28:00.890Z,78
2023-01-29T12:29:00.821Z,78
2023-01-29T12:30:05.311Z,78
2023-01-29T12:31:00.936Z,78
2023-01-29T12:32:01.021Z,78
2023-01-29T12:33:00.898Z,77
2023-01-29T12:34:00.938Z,77
2023-01-29T12:35:05.221Z,78
2023-01-29T12:36:00.979Z,78
2023-01-29T12:37:00.883Z,78
2023-01-29T12:38:01.073Z,78
2023-01-29T12:39:00.953Z,78
2023-01-29T12:40:06.107Z,78
2023-01-29T12:41:00.934Z,78
2023-01-29T12:42:01.022Z,78
2023-01-29T12:43:00.944Z,78
2023-01-29T12:44:01.062Z,78
2023-01-29T12:45:05.057Z,78
2023-01-29T12:46:01.056Z,78
2023-01-29T12:47:01.077Z,77
2023-01-29T12:48:01.088Z,77
2023-01-29T12:49:00.994Z,77
2023-01-29T12:50:06.026Z,77
2023-01-29T12:51:01.027Z,77
2023-01-29T12:52:01.070Z,77
2023-01-29T12:53:01.039Z,77
2023-01-29T12:54:01.118Z,77
2023-01-29T12:55:05.308Z,77
2023-01-29T12:56:01.354Z,77
2023-01-29T12:57:01.054Z,77
2023-01-29T12:58:01.123Z,76
2023-01-29T12:59:01.056Z,76
2023-01-29T13:00:06.109Z,76
2023-01-29T13:01:01.124Z,76
2023-01-29T13:02:01.642Z,76
2023-01-29T13:03:01.140Z,76
2023-01-29T13:04:01.675Z,76
2023-01-29T13:05:05.416Z,76
2023-01-29T13:06:01.656Z,76
2023-01-29T13:07:01.121Z,76
2023-01-29T13:08:01.662Z,76
2023-01-29T13:09:01.140Z,76
2023-01-29T13:10:06.114Z,76
2023-01-29T13:11:01.158Z,76
2023-01-29T13:12:01.659Z,76
2023-01-29T13:13:01.148Z,76
2023-01-29T13:14:01.684Z,76
2023-01-29T13:15:05.934Z,76
2023-01-29T13:16:01.868Z,76
2023-01-29T13:17:01.651Z,76
2023-01-29T13:18:01.712Z,75
2023-01-29T13:19:00.209Z,75
2023-01-29T13:20:04.901Z,74
2023-01-29T13:21:00.231Z,74
2023-01-29T13:22:00.291Z,74
2023-01-29T13:23:00.204Z,74
2023-01-29T13:24:00.287Z,75
2023-01-29T13:25:05.482Z,75
2023-01-29T13:26:00.330Z,75
2023-01-29T13:27:00.241Z,75
2023-01-29T13:28:00.312Z,75
2023-01-29T13:29:00.244Z,75
2023-01-29T13:30:04.803Z,75
2023-01-29T13:31:00.330Z,75
2023-01-29T13:32:00.486Z,75
2023-01-29T13:33:00.290Z,75
2023-01-29T13:34:00.337Z,75
2023-01-29T13:35:03.534Z,75
2023-01-29T13:36:00.421Z,75
2023-01-29T13:37:00.315Z,75
2023-01-29T13:38:00.425Z,75
2023-01-29T13:39:00.333Z,75
2023-01-29T13:40:05.974Z,75
2023-01-29T13:41:00.359Z,75
2023-01-29T13:42:00.431Z,75
2023-01-29T13:43:00.785Z,75
2023-01-29T13:44:00.455Z,75
2023-01-29T13:45:03.884Z,75
2023-01-29T13:46:00.467Z,75
2023-01-29T13:47:00.392Z,75
2023-01-29T13:48:00.519Z,75
2023-01-29T13:49:00.379Z,75
2023-01-29T13:50:07.412Z,75
2023-01-29T13:51:00.419Z,75
2023-01-29T13:52:00.531Z,75
2023-01-29T13:53:00.437Z,75
2023-01-29T13:54:00.497Z,75
2023-01-29T13:55:03.827Z,75
2023-01-29T13:56:00.541Z,74
2023-01-29T13:57:00.442Z,74
2023-01-29T13:58:00.532Z,74
2023-01-29T13:59:00.470Z,74
2023-01-29T14:00:05.062Z,74
2023-01-29T14:01:00.583Z,74
2023-01-29T14:02:00.590Z,74
2023-01-29T14:03:00.513Z,74
2023-01-29T14:04:05.123Z,74
2023-01-29T14:05:03.773Z,74
2023-01-29T14:06:00.609Z,74
2023-01-29T14:07:00.535Z,74
2023-01-29T14:08:00.675Z,74
2023-01-29T14:09:00.568Z,74
2023-01-29T14:10:05.081Z,74
2023-01-29T14:11:00.566Z,74
2023-01-29T14:12:00.653Z,74
2023-01-29T14:13:00.572Z,74
2023-01-29T14:14:00.654Z,74
2023-01-29T14:15:03.933Z,74
2023-01-29T14:16:00.669Z,74